X  Schließen METAR Luftfahrt Wetterdaten     LOWL Linz-Hörsching Airport / Vogler Air Base
Temperatur
2°C Temperatur
1°C Taupunkt
93% Feuchtigkeit



Wind
8 KM/S
5 MPS
2 M/S
4 KTS



80°
O
Aktuelle Wetterlage

Leicht  Regen Leicht Regen
Luftdruck 1021.92 (hPa) - 30.18 (inHg)
Sichtweite 3.1 (Meile) - 5 (Km)
Flughafen
Flughafen Code LOWL

Position : Linz-Hörsching Airport / Vogler Air Base
Entfernung: 32 (Km)

Metar:
LOWL 010850Z AUTO 08004KT 040V100 5000 -RA FEW030 SCT036 BKN048 02/01 Q1022 NOSIG

Zeit: 01-12-2022 09:50 CET